createdAt,value
2018-01-26T00:00:23.929Z,10.88
2018-01-26T00:02:53.049Z,10.84
2018-01-26T00:05:22.145Z,10.84
2018-01-26T00:07:51.294Z,10.86
2018-01-26T00:10:20.417Z,10.86
2018-01-26T00:12:50.301Z,10.87
2018-01-26T00:15:19.402Z,10.91
2018-01-26T00:17:48.553Z,11.29
2018-01-26T00:20:18.457Z,11.18
2018-01-26T00:22:47.533Z,10.99
2018-01-26T00:25:16.649Z,10.81
2018-01-26T00:27:45.789Z,10.78
2018-01-26T00:30:15.687Z,10.63
2018-01-26T00:32:44.775Z,10.60
2018-01-26T00:35:13.886Z,10.55
2018-01-26T00:37:43.006Z,10.51
2018-01-26T00:40:12.131Z,10.50
2018-01-26T00:42:41.220Z,10.54
2018-01-26T00:45:10.340Z,10.53
2018-01-26T00:47:39.458Z,10.52
2018-01-26T00:50:08.579Z,10.49
2018-01-26T00:52:37.668Z,10.49
2018-01-26T00:55:06.781Z,10.47
2018-01-26T00:57:35.890Z,10.40
2018-01-26T01:00:05.758Z,10.40
2018-01-26T01:02:35.637Z,10.37
2018-01-26T01:05:04.759Z,10.34
2018-01-26T01:07:33.886Z,10.32
2018-01-26T01:10:03.005Z,10.31
2018-01-26T01:12:32.113Z,10.27
2018-01-26T01:15:01.977Z,10.23
2018-01-26T01:17:31.098Z,10.28
2018-01-26T01:20:00.221Z,10.23
2018-01-26T01:22:29.324Z,10.26
2018-01-26T01:24:58.461Z,10.38
2018-01-26T01:27:27.586Z,10.45
2018-01-26T01:29:57.474Z,10.60
2018-01-26T01:32:26.570Z,10.65
2018-01-26T01:34:55.722Z,10.66
2018-01-26T01:37:24.809Z,10.70
2018-01-26T01:39:53.939Z,10.74
2018-01-26T01:42:23.029Z,10.65
2018-01-26T01:44:52.184Z,10.71
2018-01-26T01:47:21.263Z,10.75
2018-01-26T01:49:51.213Z,10.76
2018-01-26T01:52:21.073Z,10.60
2018-01-26T01:54:50.201Z,10.61
2018-01-26T01:57:19.308Z,10.53
2018-01-26T01:59:49.171Z,10.57
2018-01-26T02:02:19.054Z,10.41
2018-01-26T02:04:48.168Z,10.33
2018-01-26T02:07:17.273Z,10.24
2018-01-26T02:09:46.386Z,10.17
2018-01-26T02:12:15.526Z,10.32
2018-01-26T02:14:44.635Z,10.55
2018-01-26T02:17:13.756Z,10.45
2018-01-26T02:19:42.912Z,10.32
2018-01-26T02:22:11.998Z,10.39
2018-01-26T02:24:41.133Z,10.46
2018-01-26T02:27:10.999Z,10.41
2018-01-26T02:29:40.117Z,10.63
2018-01-26T02:32:09.993Z,10.56
2018-01-26T02:34:39.098Z,10.37
2018-01-26T02:37:08.245Z,10.26
2018-01-26T02:39:37.371Z,10.10
2018-01-26T02:42:06.460Z,9.97
2018-01-26T02:44:37.096Z,9.91
2018-01-26T02:47:06.940Z,9.85
2018-01-26T02:49:36.043Z,9.85
2018-01-26T02:52:05.185Z,10.07
2018-01-26T02:54:35.054Z,10.21
2018-01-26T02:57:04.168Z,10.12
2018-01-26T02:59:33.300Z,10.21
2018-01-26T03:02:02.397Z,10.21
2018-01-26T03:04:31.525Z,10.38
2018-01-26T03:07:00.637Z,10.36
2018-01-26T03:09:30.498Z,10.27
2018-01-26T03:11:59.622Z,10.35
2018-01-26T03:14:29.497Z,10.45
2018-01-26T03:16:59.396Z,10.44
2018-01-26T03:19:28.518Z,10.42
2018-01-26T03:21:57.653Z,10.48
2018-01-26T03:24:27.521Z,10.29
2018-01-26T03:26:57.394Z,10.33
2018-01-26T03:29:27.300Z,10.32
2018-01-26T03:31:56.402Z,10.21
2018-01-26T03:34:25.518Z,10.15
2018-01-26T03:36:54.629Z,10.10
2018-01-26T03:39:23.758Z,10.46
2018-01-26T03:41:53.669Z,10.43
2018-01-26T03:44:22.777Z,10.23
2018-01-26T03:46:51.878Z,10.08
2018-01-26T03:49:21.010Z,10.09
2018-01-26T03:51:50.093Z,10.23
2018-01-26T03:54:19.219Z,10.20
2018-01-26T03:56:48.318Z,10.13
2018-01-26T03:59:17.473Z,10.13
2018-01-26T04:01:47.390Z,10.08
2018-01-26T04:04:16.514Z,10.08
2018-01-26T04:06:45.643Z,10.02
2018-01-26T04:09:14.730Z,10.15
2018-01-26T04:11:43.836Z,10.23
2018-01-26T04:14:12.962Z,10.17
2018-01-26T04:16:42.085Z,10.07
2018-01-26T04:19:11.186Z,10.14
2018-01-26T04:21:41.102Z,10.16
2018-01-26T04:24:10.189Z,10.17
2018-01-26T04:26:39.318Z,10.15
2018-01-26T04:29:08.407Z,10.10
2018-01-26T04:31:37.520Z,10.12
2018-01-26T04:34:06.622Z,10.20
2018-01-26T04:36:36.491Z,10.21
2018-01-26T04:39:05.607Z,10.10
2018-01-26T04:41:34.682Z,9.93
2018-01-26T04:44:03.849Z,9.93
2018-01-26T04:46:33.014Z,10.01
2018-01-26T04:49:02.102Z,9.99
2018-01-26T04:51:31.200Z,9.90
2018-01-26T04:54:01.105Z,9.94
2018-01-26T04:56:30.991Z,10.01
2018-01-26T04:59:00.081Z,10.12
2018-01-26T05:01:29.200Z,10.30
2018-01-26T05:03:58.284Z,10.21
2018-01-26T05:06:27.378Z,10.03
2018-01-26T05:08:57.257Z,9.86
2018-01-26T05:11:26.393Z,9.97
2018-01-26T05:13:55.465Z,10.10
2018-01-26T05:16:24.550Z,10.17
2018-01-26T05:18:53.675Z,9.96
2018-01-26T05:21:22.749Z,10.03
2018-01-26T05:23:52.612Z,9.94
2018-01-26T05:26:21.730Z,10.03
2018-01-26T05:28:50.837Z,9.99
2018-01-26T05:31:19.925Z,10.16
2018-01-26T05:33:49.886Z,10.18
2018-01-26T05:36:19.029Z,10.17
2018-01-26T05:38:48.141Z,10.08
2018-01-26T05:41:17.226Z,9.97
2018-01-26T05:43:46.386Z,10.02
2018-01-26T05:46:15.487Z,10.05
2018-01-26T05:48:44.606Z,10.06
2018-01-26T05:51:13.702Z,10.08
2018-01-26T05:53:42.812Z,9.98
2018-01-26T05:56:11.906Z,9.98
2018-01-26T05:58:41.792Z,10.08
2018-01-26T06:01:11.678Z,10.19
2018-01-26T06:03:40.783Z,10.21
2018-01-26T06:06:09.917Z,10.19
2018-01-26T06:08:39.023Z,10.11
2018-01-26T06:11:08.174Z,10.07
2018-01-26T06:13:37.280Z,9.84
2018-01-26T06:16:06.397Z,9.78
2018-01-26T06:18:35.481Z,9.63
2018-01-26T06:21:04.594Z,9.55
2018-01-26T06:23:33.681Z,9.46
2018-01-26T06:26:02.828Z,9.43
2018-01-26T06:28:31.916Z,9.33
2018-01-26T06:31:01.004Z,9.21
2018-01-26T06:33:30.110Z,9.15
2018-01-26T06:35:59.993Z,9.10
2018-01-26T06:38:29.862Z,9.00
2018-01-26T06:40:58.954Z,8.87
2018-01-26T06:43:28.067Z,8.81
2018-01-26T06:45:57.183Z,8.80
2018-01-26T06:48:27.041Z,8.78
2018-01-26T06:50:56.125Z,8.84
2018-01-26T06:53:25.257Z,8.86
2018-01-26T06:55:54.350Z,8.88
2018-01-26T06:58:24.244Z,8.84
2018-01-26T07:00:53.347Z,8.87
2018-01-26T07:03:23.242Z,8.84
2018-01-26T07:05:52.334Z,8.79
2018-01-26T07:08:21.485Z,8.82
2018-01-26T07:10:51.368Z,8.80
2018-01-26T07:13:20.480Z,8.78
2018-01-26T07:15:49.588Z,8.88
2018-01-26T07:18:19.436Z,8.91
2018-01-26T07:20:49.303Z,8.88
2018-01-26T07:23:18.404Z,8.95
2018-01-26T07:25:47.497Z,8.94
2018-01-26T07:28:17.352Z,8.92
2018-01-26T07:30:46.450Z,8.84
2018-01-26T07:33:15.538Z,8.83
2018-01-26T07:35:45.401Z,8.80
2018-01-26T07:38:14.509Z,8.78
2018-01-26T07:40:43.605Z,8.75
2018-01-26T07:43:12.701Z,8.75
2018-01-26T07:45:41.812Z,8.77
2018-01-26T07:48:11.664Z,8.78
2018-01-26T07:50:40.821Z,8.76
2018-01-26T07:53:10.688Z,8.78
2018-01-26T07:55:40.590Z,8.82
2018-01-26T07:58:10.437Z,8.83
2018-01-26T08:00:39.582Z,8.82
2018-01-26T08:03:08.696Z,8.90
2018-01-26T08:05:37.801Z,9.08
2018-01-26T08:08:06.912Z,9.12
2018-01-26T08:10:36.003Z,9.08
2018-01-26T08:13:05.118Z,9.10
2018-01-26T08:15:34.236Z,9.31
2018-01-26T08:18:03.338Z,9.29
2018-01-26T08:20:32.421Z,9.25
2018-01-26T08:23:01.558Z,9.53
2018-01-26T08:25:30.645Z,9.64
2018-01-26T08:27:59.749Z,9.37
2018-01-26T08:30:28.887Z,9.31
2018-01-26T08:32:57.993Z,9.34
2018-01-26T08:35:27.089Z,9.35
2018-01-26T08:37:56.185Z,9.34
2018-01-26T08:40:25.307Z,9.33
2018-01-26T08:42:54.392Z,9.31
2018-01-26T08:45:23.514Z,9.33
2018-01-26T08:47:52.599Z,9.45
2018-01-26T08:50:22.462Z,9.53
2018-01-26T08:52:51.545Z,9.52
2018-01-26T08:55:20.695Z,9.58
2018-01-26T08:57:49.783Z,9.54
2018-01-26T09:00:18.947Z,9.57
2018-01-26T09:02:48.045Z,9.62
2018-01-26T09:05:17.124Z,9.62
2018-01-26T09:07:46.231Z,9.59
2018-01-26T09:10:15.326Z,9.52
2018-01-26T09:12:44.434Z,9.45
2018-01-26T09:15:13.530Z,9.41
2018-01-26T09:17:42.629Z,9.42
2018-01-26T09:20:12.483Z,9.43
2018-01-26T09:22:41.610Z,9.43
2018-01-26T09:25:11.497Z,9.46
2018-01-26T09:27:41.374Z,9.35
2018-01-26T09:30:10.466Z,9.30
2018-01-26T09:32:39.583Z,9.27
2018-01-26T09:35:08.691Z,9.27
2018-01-26T09:37:37.784Z,9.31
2018-01-26T09:40:06.900Z,9.30
2018-01-26T09:42:36.065Z,9.40
2018-01-26T09:45:05.903Z,9.52
2018-01-26T09:47:35.018Z,9.45
2018-01-26T09:50:04.127Z,9.42
2018-01-26T09:52:33.234Z,9.31
2018-01-26T09:55:02.334Z,9.28
2018-01-26T09:57:31.438Z,9.43
2018-01-26T10:00:01.327Z,9.47
2018-01-26T10:02:30.418Z,9.47
2018-01-26T10:04:59.552Z,9.48
2018-01-26T10:07:28.636Z,9.53
2018-01-26T10:09:57.759Z,9.55
2018-01-26T10:12:26.847Z,9.50
2018-01-26T10:14:55.964Z,9.60
2018-01-26T10:17:25.036Z,9.56
2018-01-26T10:19:54.146Z,9.58
2018-01-26T10:22:23.247Z,9.61
2018-01-26T10:24:52.371Z,9.58
2018-01-26T10:27:21.481Z,9.58
2018-01-26T10:29:50.571Z,9.63
2018-01-26T10:32:19.706Z,9.74
2018-01-26T10:34:48.788Z,9.81
2018-01-26T10:37:17.914Z,9.84
2018-01-26T10:39:46.999Z,9.76
2018-01-26T10:42:16.110Z,9.78
2018-01-26T10:44:45.978Z,9.77
2018-01-26T10:47:15.088Z,9.81
2018-01-26T10:49:44.969Z,9.97
2018-01-26T10:52:14.842Z,9.95
2018-01-26T10:54:44.714Z,10.23
2018-01-26T10:57:14.577Z,10.43
2018-01-26T10:59:43.708Z,10.52
2018-01-26T11:02:12.800Z,10.44
2018-01-26T11:04:41.894Z,10.24
2018-01-26T11:07:10.989Z,10.26
2018-01-26T11:09:40.133Z,10.25
2018-01-26T11:12:09.241Z,10.35
2018-01-26T11:14:38.369Z,10.27
2018-01-26T11:17:07.470Z,10.31
2018-01-26T11:19:36.565Z,10.32
2018-01-26T11:22:05.950Z,10.28
2018-01-26T11:24:35.056Z,10.24
2018-01-26T11:27:04.173Z,10.12
2018-01-26T11:29:33.281Z,10.04
2018-01-26T11:32:02.409Z,10.20
2018-01-26T11:34:31.550Z,10.16
2018-01-26T11:37:00.671Z,10.36
2018-01-26T11:39:30.536Z,10.43
2018-01-26T11:41:59.646Z,10.33
2018-01-26T11:44:28.777Z,10.39
2018-01-26T11:46:57.902Z,10.37
2018-01-26T11:49:27.009Z,10.40
2018-01-26T11:51:56.122Z,10.39
2018-01-26T11:54:25.394Z,10.19
2018-01-26T11:56:54.497Z,10.25
2018-01-26T11:59:24.351Z,10.36
2018-01-26T12:01:53.450Z,10.38
2018-01-26T12:04:22.576Z,10.42
2018-01-26T12:06:51.646Z,10.35
2018-01-26T12:09:20.770Z,10.18
2018-01-26T12:11:49.880Z,10.07
2018-01-26T12:14:19.022Z,10.03
2018-01-26T12:16:48.094Z,9.91
2018-01-26T12:19:17.214Z,10.01
2018-01-26T12:21:46.305Z,9.98
2018-01-26T12:24:15.437Z,9.95
2018-01-26T12:26:44.546Z,9.98
2018-01-26T12:29:13.644Z,10.04
2018-01-26T12:31:42.729Z,9.96
2018-01-26T12:34:11.830Z,9.96
2018-01-26T12:36:40.949Z,9.93
2018-01-26T12:39:10.080Z,9.88
2018-01-26T12:41:39.189Z,9.78
2018-01-26T12:44:08.303Z,9.73
2018-01-26T12:46:37.382Z,9.61
2018-01-26T12:49:06.520Z,9.54
2018-01-26T12:51:35.612Z,9.46
2018-01-26T12:54:04.717Z,9.40
2018-01-26T12:56:33.830Z,9.48
2018-01-26T12:59:02.947Z,9.46
2018-01-26T13:01:32.060Z,9.64
2018-01-26T13:04:01.206Z,9.93
2018-01-26T13:06:30.354Z,10.01
2018-01-26T13:09:00.210Z,10.02
2018-01-26T13:11:29.316Z,10.16
2018-01-26T13:13:58.409Z,9.97
2018-01-26T13:16:27.525Z,9.98
2018-01-26T13:18:56.662Z,9.90
2018-01-26T13:21:25.790Z,10.05
2018-01-26T13:23:54.879Z,10.00
2018-01-26T13:26:24.061Z,9.87
2018-01-26T13:28:54.425Z,9.82
2018-01-26T13:31:23.522Z,9.79
2018-01-26T13:33:52.644Z,9.77
2018-01-26T13:36:21.740Z,9.69
2018-01-26T13:38:50.841Z,9.66
2018-01-26T13:41:19.949Z,9.94
2018-01-26T13:43:49.065Z,9.79
2018-01-26T13:46:18.162Z,9.79
2018-01-26T13:48:47.277Z,9.89
2018-01-26T13:51:16.375Z,9.87
2018-01-26T13:53:45.516Z,9.96
2018-01-26T13:56:15.476Z,10.01
2018-01-26T13:58:45.354Z,9.98
2018-01-26T14:01:14.434Z,9.90
2018-01-26T14:03:43.550Z,9.95
2018-01-26T14:06:12.658Z,9.96
2018-01-26T14:08:41.754Z,9.99
2018-01-26T14:11:10.876Z,10.00
2018-01-26T14:13:39.970Z,9.70
2018-01-26T14:16:09.116Z,9.66
2018-01-26T14:18:38.189Z,9.57
2018-01-26T14:21:07.316Z,9.49
2018-01-26T14:23:36.431Z,9.53
2018-01-26T14:26:05.536Z,9.54
2018-01-26T14:28:34.633Z,9.47
2018-01-26T14:31:03.758Z,9.46
2018-01-26T14:33:32.852Z,9.40
2018-01-26T14:36:01.954Z,9.38
2018-01-26T14:38:31.066Z,9.36
2018-01-26T14:41:00.189Z,9.44
2018-01-26T14:43:29.306Z,9.35
2018-01-26T14:45:58.429Z,9.34
2018-01-26T14:48:28.288Z,9.34
2018-01-26T14:50:58.203Z,9.31
2018-01-26T14:53:27.348Z,9.32
2018-01-26T14:55:57.593Z,9.33
2018-01-26T14:58:26.704Z,9.34
2018-01-26T15:00:55.833Z,9.34
2018-01-26T15:03:24.943Z,9.30
2018-01-26T15:05:54.029Z,9.26
2018-01-26T15:08:23.138Z,9.23
2018-01-26T15:10:52.268Z,9.22
2018-01-26T15:13:22.125Z,9.26
2018-01-26T15:15:51.272Z,9.38
2018-01-26T15:18:20.388Z,9.41
2018-01-26T15:20:49.535Z,9.39
2018-01-26T15:23:18.646Z,9.44
2018-01-26T15:25:47.753Z,9.33
2018-01-26T15:28:16.877Z,9.39
2018-01-26T15:30:45.992Z,9.35
2018-01-26T15:33:15.114Z,9.29
2018-01-26T15:35:44.978Z,9.20
2018-01-26T15:38:14.161Z,9.14
2018-01-26T15:40:44.018Z,9.06
2018-01-26T15:43:13.123Z,9.02
2018-01-26T15:45:42.264Z,9.02
2018-01-26T15:48:11.352Z,9.05
2018-01-26T15:50:40.478Z,9.01
2018-01-26T15:53:11.101Z,8.97
2018-01-26T15:55:40.395Z,8.94
2018-01-26T15:58:09.508Z,8.90
2018-01-26T16:00:38.654Z,8.88
2018-01-26T16:03:07.760Z,8.88
2018-01-26T16:05:36.850Z,8.85
2018-01-26T16:08:05.982Z,8.86
2018-01-26T16:10:35.122Z,8.88
2018-01-26T16:13:05.012Z,8.85
2018-01-26T16:15:34.110Z,8.83
2018-01-26T16:18:03.250Z,8.84
2018-01-26T16:20:32.342Z,8.84
2018-01-26T16:23:01.457Z,8.86
2018-01-26T16:25:30.579Z,8.90
2018-01-26T16:27:59.728Z,8.94
2018-01-26T16:30:28.841Z,8.97
2018-01-26T16:32:57.940Z,8.97
2018-01-26T16:35:27.039Z,9.09
2018-01-26T16:37:56.173Z,9.07
2018-01-26T16:40:25.387Z,9.13
2018-01-26T16:42:54.526Z,9.18
2018-01-26T16:45:23.656Z,9.23
2018-01-26T16:47:52.778Z,9.23
2018-01-26T16:50:22.640Z,9.15
2018-01-26T16:52:51.745Z,9.11
2018-01-26T16:55:20.897Z,9.08
2018-01-26T16:57:50.060Z,9.05
2018-01-26T17:00:19.188Z,9.11
2018-01-26T17:02:48.281Z,9.04
2018-01-26T17:05:18.194Z,9.00
2018-01-26T17:07:48.052Z,8.98
2018-01-26T17:10:17.141Z,8.96
2018-01-26T17:12:46.238Z,8.93
2018-01-26T17:15:15.336Z,8.90
2018-01-26T17:17:44.453Z,8.89
2018-01-26T17:20:13.589Z,8.97
2018-01-26T17:22:42.723Z,9.01
2018-01-26T17:25:11.829Z,9.07
2018-01-26T17:27:40.969Z,9.05
2018-01-26T17:30:10.827Z,9.08
2018-01-26T17:32:39.957Z,9.15
2018-01-26T17:35:09.062Z,9.19
2018-01-26T17:37:38.224Z,9.15
2018-01-26T17:40:07.346Z,9.09
2018-01-26T17:42:36.466Z,9.16
2018-01-26T17:45:05.550Z,9.15
2018-01-26T17:47:34.672Z,9.07
2018-01-26T17:50:03.814Z,9.08
2018-01-26T17:52:32.908Z,9.03
2018-01-26T17:55:02.041Z,9.01
2018-01-26T17:57:31.138Z,8.98
2018-01-26T18:00:00.291Z,8.93
2018-01-26T18:02:30.164Z,8.97
2018-01-26T18:04:59.298Z,8.99
2018-01-26T18:07:29.165Z,9.10
2018-01-26T18:09:59.026Z,9.22
2018-01-26T18:12:28.182Z,9.24
2018-01-26T18:14:57.318Z,9.38
2018-01-26T18:17:26.410Z,9.32
2018-01-26T18:19:56.294Z,9.36
2018-01-26T18:22:25.420Z,9.26
2018-01-26T18:24:54.520Z,9.24
2018-01-26T18:27:23.675Z,9.20
2018-01-26T18:29:53.555Z,9.15
2018-01-26T18:32:22.671Z,9.10
2018-01-26T18:34:51.798Z,9.09
2018-01-26T18:37:20.921Z,9.22
2018-01-26T18:39:50.774Z,9.29
2018-01-26T18:42:19.886Z,9.30
2018-01-26T18:44:49.015Z,9.41
2018-01-26T18:47:18.122Z,9.36
2018-01-26T18:49:47.448Z,9.17
2018-01-26T18:52:16.577Z,9.06
2018-01-26T18:54:45.712Z,9.10
2018-01-26T18:57:15.579Z,9.16
2018-01-26T18:59:44.716Z,9.24
2018-01-26T19:02:13.823Z,9.08
2018-01-26T19:04:42.983Z,9.03
2018-01-26T19:07:12.094Z,9.06
2018-01-26T19:09:41.212Z,9.12
2018-01-26T19:12:10.312Z,9.14
2018-01-26T19:14:39.459Z,9.14
2018-01-26T19:17:08.594Z,9.04
2018-01-26T19:19:37.685Z,9.01
2018-01-26T19:22:06.832Z,9.08
2018-01-26T19:24:35.964Z,9.10
2018-01-26T19:27:05.083Z,9.11
2018-01-26T19:29:34.197Z,9.10
2018-01-26T19:32:03.406Z,8.98
2018-01-26T19:34:32.525Z,8.90
2018-01-26T19:37:01.674Z,8.84
2018-01-26T19:39:31.710Z,8.83
2018-01-26T19:42:01.606Z,8.80
2018-01-26T19:44:31.470Z,8.87
2018-01-26T19:47:00.576Z,8.86
2018-01-26T19:49:30.483Z,8.96
2018-01-26T19:51:59.597Z,8.98
2018-01-26T19:54:29.499Z,8.93
2018-01-26T19:56:58.645Z,8.85
2018-01-26T19:59:28.521Z,8.81
2018-01-26T20:01:57.678Z,8.77
2018-01-26T20:04:32.258Z,8.79
2018-01-26T20:07:24.792Z,8.73
2018-01-26T20:09:53.924Z,8.74
2018-01-26T20:12:23.790Z,8.80
2018-01-26T20:14:52.954Z,8.91
2018-01-26T20:17:22.068Z,9.05
2018-01-26T20:19:51.199Z,8.99
2018-01-26T20:22:20.333Z,8.90
2018-01-26T20:24:49.475Z,8.88
2018-01-26T20:27:18.613Z,8.81
2018-01-26T20:29:47.706Z,8.85
2018-01-26T20:32:19.747Z,8.86
2018-01-26T20:34:49.652Z,8.80
2018-01-26T20:37:18.813Z,8.74
2018-01-26T20:39:48.107Z,8.77
2018-01-26T20:42:17.284Z,8.76
2018-01-26T20:44:46.417Z,8.68
2018-01-26T20:47:15.556Z,8.64
2018-01-26T20:49:44.666Z,8.76
2018-01-26T20:52:13.814Z,8.76
2018-01-26T20:54:42.942Z,8.70
2018-01-26T20:57:12.072Z,8.66
2018-01-26T20:59:41.976Z,8.62
2018-01-26T21:02:11.121Z,8.63
2018-01-26T21:04:40.257Z,8.74
2018-01-26T21:07:09.442Z,8.76
2018-01-26T21:09:38.711Z,8.78
2018-01-26T21:12:07.842Z,8.88
2018-01-26T21:14:37.757Z,8.81
2018-01-26T21:17:07.653Z,8.80
2018-01-26T21:19:36.791Z,8.85
2018-01-26T21:22:06.701Z,9.03
2018-01-26T21:24:35.854Z,9.14
2018-01-26T21:27:05.759Z,9.23
2018-01-26T21:29:34.860Z,9.12
2018-01-26T21:32:03.970Z,9.00
2018-01-26T21:34:33.117Z,8.98
2018-01-26T21:37:02.240Z,8.98
2018-01-26T21:39:32.120Z,9.02
2018-01-26T21:42:01.236Z,8.93
2018-01-26T21:44:31.119Z,8.94
2018-01-26T21:47:00.255Z,8.90
2018-01-26T21:49:29.379Z,8.81
2018-01-26T21:51:59.268Z,8.95
2018-01-26T21:54:28.398Z,8.90
2018-01-26T21:56:57.551Z,8.95
2018-01-26T21:59:26.652Z,8.99
2018-01-26T22:01:56.568Z,9.14
2018-01-26T22:17:48.499Z,8.57
2018-01-26T22:20:17.629Z,8.66
2018-01-26T22:22:46.763Z,8.64
2018-01-26T22:25:15.874Z,8.71
2018-01-26T22:27:44.984Z,8.70
2018-01-26T22:30:14.116Z,8.70
2018-01-26T22:32:43.981Z,8.61
2018-01-26T22:35:13.115Z,8.49
2018-01-26T22:37:42.246Z,8.39
2018-01-26T22:40:12.106Z,8.31
2018-01-26T22:42:41.231Z,8.25
2018-01-26T22:45:10.327Z,8.23
2018-01-26T22:47:39.445Z,8.22
2018-01-26T22:50:08.550Z,8.20
2018-01-26T22:52:37.705Z,8.16
2018-01-26T22:55:08.307Z,8.12
2018-01-26T22:57:37.432Z,8.16
2018-01-26T23:00:06.550Z,8.19
2018-01-26T23:02:35.695Z,8.35
2018-01-26T23:05:05.569Z,8.57
2018-01-26T23:07:34.663Z,8.51
2018-01-26T23:10:03.799Z,8.37
2018-01-26T23:12:32.888Z,8.27
2018-01-26T23:15:01.998Z,8.26
2018-01-26T23:17:31.894Z,8.24
2018-01-26T23:20:01.748Z,8.20
2018-01-26T23:22:30.837Z,8.17
2018-01-26T23:24:59.953Z,8.14
2018-01-26T23:27:29.054Z,8.27
2018-01-26T23:29:58.186Z,8.21
2018-01-26T23:32:27.293Z,8.09
2018-01-26T23:34:56.433Z,8.05
2018-01-26T23:37:25.549Z,8.02
2018-01-26T23:39:54.657Z,7.99
2018-01-26T23:42:23.746Z,7.97
2018-01-26T23:44:52.886Z,8.00
2018-01-26T23:47:21.996Z,8.24
2018-01-26T23:49:52.582Z,8.37
2018-01-26T23:52:21.698Z,8.34
2018-01-26T23:54:50.801Z,8.24
2018-01-26T23:57:19.910Z,8.07
2018-01-26T23:59:49.026Z,7.91
